createdAt,value
2017-12-02T00:00:46.620Z,8.33
2017-12-02T00:03:13.010Z,7.07
2017-12-02T00:05:39.354Z,9.27
2017-12-02T00:08:05.709Z,7.40
2017-12-02T00:10:32.028Z,8.00
2017-12-02T00:12:58.306Z,7.13
2017-12-02T00:15:25.508Z,8.30
2017-12-02T00:17:51.860Z,7.30
2017-12-02T00:20:18.150Z,9.40
2017-12-02T00:22:44.450Z,6.77
2017-12-02T00:25:10.800Z,8.47
2017-12-02T00:27:37.126Z,6.90
2017-12-02T00:30:03.465Z,7.50
2017-12-02T00:32:29.802Z,6.43
2017-12-02T00:34:56.104Z,7.00
2017-12-02T00:37:23.173Z,8.03
2017-12-02T00:39:49.486Z,7.57
2017-12-02T00:42:16.521Z,6.30
2017-12-02T00:44:42.795Z,6.83
2017-12-02T00:47:09.101Z,6.50
2017-12-02T00:49:36.213Z,6.83
2017-12-02T00:52:02.573Z,7.70
2017-12-02T00:54:28.903Z,6.93
2017-12-02T00:56:55.928Z,8.00
2017-12-02T00:59:22.205Z,7.27
2017-12-02T01:01:48.504Z,7.10
2017-12-02T01:04:14.813Z,6.30
2017-12-02T01:06:41.058Z,6.20
2017-12-02T01:09:07.389Z,6.50
2017-12-02T01:11:33.982Z,7.10
2017-12-02T01:14:00.296Z,6.20
2017-12-02T01:16:26.660Z,7.03
2017-12-02T01:18:52.954Z,5.40
2017-12-02T01:21:20.039Z,4.90
2017-12-02T01:23:46.332Z,5.30
2017-12-02T01:26:13.344Z,5.50
2017-12-02T01:28:39.672Z,6.00
2017-12-02T01:31:06.012Z,4.30
2017-12-02T01:33:32.302Z,5.03
2017-12-02T01:35:58.569Z,4.53
2017-12-02T01:38:24.897Z,5.17
2017-12-02T01:40:51.220Z,4.93
2017-12-02T01:43:17.522Z,5.37
2017-12-02T01:45:43.821Z,4.30
2017-12-02T01:48:11.786Z,5.07
2017-12-02T01:50:38.816Z,3.90
2017-12-02T01:53:05.097Z,4.70
2017-12-02T01:55:31.393Z,4.00
2017-12-02T01:57:58.471Z,4.00
2017-12-02T02:00:24.719Z,4.20
2017-12-02T02:02:51.017Z,4.67
2017-12-02T02:05:17.302Z,4.37
2017-12-02T02:07:43.575Z,4.10
2017-12-02T02:10:10.581Z,4.73
2017-12-02T02:12:36.911Z,6.23
2017-12-02T02:15:03.176Z,5.83
2017-12-02T02:17:30.194Z,5.60
2017-12-02T02:19:56.519Z,5.20
2017-12-02T02:22:22.817Z,5.30
2017-12-02T02:24:49.140Z,5.80
2017-12-02T02:27:15.390Z,5.20
2017-12-02T02:29:41.642Z,5.23
2017-12-02T02:32:08.004Z,5.97
2017-12-02T02:34:35.040Z,5.90
2017-12-02T02:37:02.124Z,5.63
2017-12-02T02:39:28.448Z,5.47
2017-12-02T02:41:54.701Z,6.83
2017-12-02T02:44:20.937Z,7.00
2017-12-02T02:46:47.268Z,6.50
2017-12-02T02:49:13.581Z,5.97
2017-12-02T02:51:39.868Z,6.80
2017-12-02T02:54:06.903Z,6.10
2017-12-02T02:56:34.001Z,5.90
2017-12-02T02:59:00.428Z,5.87
2017-12-02T03:01:26.711Z,6.10
2017-12-02T03:03:53.011Z,5.97
2017-12-02T03:06:19.288Z,5.60
2017-12-02T03:08:45.573Z,5.20
2017-12-02T03:11:11.850Z,5.60
2017-12-02T03:13:38.850Z,6.40
2017-12-02T03:16:05.148Z,6.77
2017-12-02T03:18:31.484Z,7.00
2017-12-02T03:20:57.794Z,6.07
2017-12-02T03:23:24.814Z,6.87
2017-12-02T03:25:51.118Z,6.33
2017-12-02T03:28:17.427Z,6.23
2017-12-02T03:30:43.761Z,6.90
2017-12-02T03:33:10.102Z,7.73
2017-12-02T03:35:36.385Z,7.80
2017-12-02T03:38:02.660Z,7.87
2017-12-02T03:40:28.976Z,8.43
2017-12-02T03:42:55.329Z,7.40
2017-12-02T03:45:21.634Z,7.80
2017-12-02T03:47:48.686Z,8.27
2017-12-02T03:50:15.019Z,6.47
2017-12-02T03:52:41.327Z,8.10
2017-12-02T03:55:08.424Z,6.47
2017-12-02T03:57:34.738Z,6.63
2017-12-02T04:00:01.076Z,7.50
2017-12-02T04:02:27.383Z,7.33
2017-12-02T04:04:54.438Z,7.53
2017-12-02T04:07:20.699Z,9.10
2017-12-02T04:09:47.016Z,9.13
2017-12-02T04:12:13.760Z,8.70
2017-12-02T04:14:40.095Z,9.37
2017-12-02T04:17:07.384Z,7.70
2017-12-02T04:19:33.774Z,8.30
2017-12-02T04:22:00.112Z,10.30
2017-12-02T04:24:26.410Z,10.33
2017-12-02T04:26:53.466Z,8.77
2017-12-02T04:29:19.795Z,11.17
2017-12-02T04:31:46.088Z,9.67
2017-12-02T04:34:12.403Z,9.33
2017-12-02T04:36:38.708Z,9.50
2017-12-02T04:39:05.054Z,10.07
2017-12-02T04:41:31.349Z,9.50
2017-12-02T04:43:58.393Z,8.60
2017-12-02T04:46:25.443Z,9.63
2017-12-02T04:48:52.558Z,10.30
2017-12-02T04:51:18.845Z,9.00
2017-12-02T04:53:45.185Z,10.33
2017-12-02T04:56:11.498Z,12.40
2017-12-02T04:58:37.785Z,11.03
2017-12-02T05:01:04.094Z,11.83
2017-12-02T05:03:30.389Z,11.60
2017-12-02T05:05:56.659Z,12.43
2017-12-02T05:08:22.953Z,12.97
2017-12-02T05:10:49.239Z,14.60
2017-12-02T05:13:15.499Z,12.70
2017-12-02T05:15:42.406Z,12.80
2017-12-02T05:18:08.680Z,13.63
2017-12-02T05:20:35.035Z,11.60
2017-12-02T05:23:01.338Z,12.03
2017-12-02T05:25:27.666Z,12.60
2017-12-02T05:27:53.996Z,13.07
2017-12-02T05:30:20.311Z,13.27
2017-12-02T05:32:47.386Z,13.33
2017-12-02T05:35:13.655Z,13.90
2017-12-02T05:37:39.940Z,11.70
2017-12-02T05:40:06.252Z,13.53
2017-12-02T05:42:33.300Z,11.97
2017-12-02T05:45:00.300Z,11.50
2017-12-02T05:47:26.589Z,12.70
2017-12-02T05:49:53.645Z,12.07
2017-12-02T05:52:19.935Z,11.07
2017-12-02T05:54:46.196Z,14.03
2017-12-02T05:57:14.161Z,11.43
2017-12-02T05:59:41.195Z,12.33
2017-12-02T06:02:07.449Z,12.97
2017-12-02T06:04:33.791Z,13.73
2017-12-02T06:07:00.079Z,11.13
2017-12-02T06:09:26.350Z,12.97
2017-12-02T06:11:52.611Z,12.23
2017-12-02T06:14:18.889Z,12.87
2017-12-02T06:16:45.900Z,12.77
2017-12-02T06:19:12.211Z,11.17
2017-12-02T06:21:38.496Z,12.70
2017-12-02T06:24:05.484Z,13.67
2017-12-02T06:26:31.752Z,13.17
2017-12-02T06:28:58.002Z,13.23
2017-12-02T06:31:24.994Z,13.80
2017-12-02T06:33:51.244Z,14.43
2017-12-02T06:36:18.291Z,14.77
2017-12-02T06:38:44.566Z,14.73
2017-12-02T06:41:10.816Z,14.83
2017-12-02T06:43:37.120Z,16.13
2017-12-02T06:46:04.120Z,14.57
2017-12-02T06:48:30.397Z,14.27
2017-12-02T06:50:57.412Z,16.53
2017-12-02T06:53:23.678Z,16.90
2017-12-02T06:55:49.969Z,15.23
2017-12-02T06:58:16.279Z,15.93
2017-12-02T07:00:42.587Z,15.93
2017-12-02T07:03:08.941Z,15.30
2017-12-02T07:05:35.301Z,16.70
2017-12-02T07:08:01.597Z,15.37
2017-12-02T07:10:27.914Z,16.80
2017-12-02T07:12:54.219Z,17.40
2017-12-02T07:15:21.220Z,16.77
2017-12-02T07:17:47.504Z,16.60
2017-12-02T07:20:13.761Z,15.90
2017-12-02T07:22:40.064Z,18.63
2017-12-02T07:25:07.096Z,16.40
2017-12-02T07:27:34.139Z,16.30
2017-12-02T07:30:01.166Z,17.70
2017-12-02T07:32:27.480Z,16.87
2017-12-02T07:34:53.771Z,17.07
2017-12-02T07:37:20.253Z,18.77
2017-12-02T07:39:46.534Z,18.40
2017-12-02T07:42:12.835Z,16.43
2017-12-02T07:44:39.110Z,17.10
2017-12-02T07:47:05.397Z,21.77
2017-12-02T07:49:31.681Z,21.13
2017-12-02T07:51:57.961Z,20.77
2017-12-02T07:54:25.003Z,20.87
2017-12-02T07:56:51.290Z,20.00
2017-12-02T07:59:17.645Z,19.37
2017-12-02T08:01:43.940Z,19.67
2017-12-02T08:04:10.205Z,20.87
2017-12-02T08:06:36.486Z,19.63
2017-12-02T08:09:02.929Z,18.20
2017-12-02T08:11:29.185Z,20.13
2017-12-02T08:13:55.476Z,19.03
2017-12-02T08:16:22.505Z,17.03
2017-12-02T08:18:49.546Z,18.43
2017-12-02T08:21:16.695Z,16.70
2017-12-02T08:23:43.017Z,18.27
2017-12-02T08:26:09.394Z,16.97
2017-12-02T08:28:35.654Z,16.23
2017-12-02T08:31:01.965Z,15.00
2017-12-02T08:33:28.294Z,16.40
2017-12-02T08:35:54.614Z,16.37
2017-12-02T08:38:20.936Z,16.07
2017-12-02T08:40:47.361Z,14.93
2017-12-02T08:43:14.455Z,15.83
2017-12-02T08:45:40.770Z,15.43
2017-12-02T08:48:07.036Z,15.30
2017-12-02T08:50:33.326Z,14.70
2017-12-02T08:52:59.625Z,12.37
2017-12-02T08:55:26.661Z,15.60
2017-12-02T08:57:52.962Z,14.30
2017-12-02T09:00:19.250Z,14.33
2017-12-02T09:02:46.365Z,13.63
2017-12-02T09:05:12.637Z,13.27
2017-12-02T09:07:38.958Z,13.17
2017-12-02T09:10:05.995Z,15.07
2017-12-02T09:12:33.003Z,13.37
2017-12-02T09:14:59.403Z,12.00
2017-12-02T09:17:25.692Z,12.60
2017-12-02T09:19:52.150Z,14.20
2017-12-02T09:22:19.600Z,12.50
2017-12-02T09:24:46.966Z,14.73
2017-12-02T09:27:13.304Z,16.37
2017-12-02T09:29:39.616Z,12.37
2017-12-02T09:32:06.670Z,11.93
2017-12-02T09:34:33.660Z,14.57
2017-12-02T09:37:00.179Z,11.13
2017-12-02T09:39:26.783Z,11.63
2017-12-02T09:41:54.025Z,11.73
2017-12-02T09:44:20.325Z,10.83
2017-12-02T09:46:46.629Z,11.70
2017-12-02T09:49:12.965Z,12.57
2017-12-02T09:51:39.217Z,12.60
2017-12-02T09:54:05.503Z,11.10
2017-12-02T09:56:32.566Z,12.03
2017-12-02T09:58:59.991Z,10.90
2017-12-02T10:01:26.275Z,12.07
2017-12-02T10:03:52.588Z,9.77
2017-12-02T10:06:18.919Z,9.90
2017-12-02T10:08:45.272Z,11.20
2017-12-02T10:11:11.576Z,11.50
2017-12-02T10:13:37.864Z,10.40
2017-12-02T10:16:04.183Z,10.77
2017-12-02T10:18:30.520Z,11.50
2017-12-02T10:20:56.919Z,9.87
2017-12-02T10:23:23.332Z,10.70
2017-12-02T10:25:49.690Z,10.13
2017-12-02T10:28:16.033Z,9.90
2017-12-02T10:30:43.355Z,9.70
2017-12-02T10:33:09.677Z,9.20
2017-12-02T10:35:36.081Z,11.43
2017-12-02T10:38:03.181Z,10.20
2017-12-02T10:40:29.507Z,9.50
2017-12-02T10:42:56.309Z,9.87
2017-12-02T10:45:22.659Z,10.10
2017-12-02T10:47:49.013Z,10.93
2017-12-02T10:50:15.349Z,10.70
2017-12-02T10:52:41.697Z,11.80
2017-12-02T10:55:07.999Z,11.30
2017-12-02T10:57:34.359Z,11.80
2017-12-02T11:00:00.667Z,10.03
2017-12-02T11:02:27.005Z,10.70
2017-12-02T11:04:53.337Z,10.37
2017-12-02T11:07:19.668Z,11.03
2017-12-02T11:09:45.951Z,11.10
2017-12-02T11:12:12.939Z,10.20
2017-12-02T11:14:39.204Z,10.10
2017-12-02T11:17:05.491Z,9.43
2017-12-02T11:19:31.810Z,9.30
2017-12-02T11:21:58.067Z,8.93
2017-12-02T11:24:24.322Z,9.37
2017-12-02T11:26:50.724Z,8.80
2017-12-02T11:29:17.128Z,9.20
2017-12-02T11:31:44.300Z,9.00
2017-12-02T11:34:12.389Z,8.60
2017-12-02T11:36:39.319Z,10.07
2017-12-02T11:39:05.663Z,10.37
2017-12-02T11:41:31.930Z,9.87
2017-12-02T11:43:59.009Z,11.17
2017-12-02T11:46:25.279Z,10.83
2017-12-02T11:48:51.895Z,9.97
2017-12-02T11:51:18.145Z,9.50
2017-12-02T11:53:44.414Z,9.73
2017-12-02T11:56:11.446Z,10.30
2017-12-02T11:58:37.799Z,9.40
2017-12-02T12:01:04.848Z,8.13
2017-12-02T12:03:31.843Z,8.47
2017-12-02T12:05:58.569Z,8.70
2017-12-02T12:08:24.975Z,7.80
2017-12-02T12:10:51.291Z,8.43
2017-12-02T12:13:18.290Z,7.60
2017-12-02T12:15:44.602Z,8.33
2017-12-02T12:18:10.904Z,10.30
2017-12-02T12:20:37.942Z,9.17
2017-12-02T12:23:05.057Z,9.47
2017-12-02T12:25:31.362Z,9.60
2017-12-02T12:27:57.731Z,11.00
2017-12-02T12:30:24.064Z,9.80
2017-12-02T12:32:50.390Z,9.07
2017-12-02T12:35:16.700Z,10.17
2017-12-02T12:37:42.997Z,9.63
2017-12-02T12:40:10.115Z,9.80
2017-12-02T12:42:36.463Z,9.70
2017-12-02T12:45:03.463Z,9.80
2017-12-02T12:47:29.743Z,10.40
2017-12-02T12:49:56.742Z,10.20
2017-12-02T12:52:23.047Z,10.77
2017-12-02T12:54:49.344Z,10.97
2017-12-02T12:57:15.651Z,10.67
2017-12-02T12:59:42.556Z,10.77
2017-12-02T13:02:08.924Z,11.00
2017-12-02T13:04:35.342Z,11.73
2017-12-02T13:07:01.899Z,12.30
2017-12-02T13:09:28.296Z,13.20
2017-12-02T13:11:54.613Z,14.20
2017-12-02T13:14:20.912Z,13.27
2017-12-02T13:16:47.200Z,12.73
2017-12-02T13:19:13.539Z,13.00
2017-12-02T13:21:39.871Z,13.00
2017-12-02T13:24:06.211Z,15.10
2017-12-02T13:26:32.544Z,14.03
2017-12-02T13:28:58.851Z,12.47
2017-12-02T13:31:25.194Z,15.00
2017-12-02T13:33:51.594Z,12.57
2017-12-02T13:36:17.932Z,13.97
2017-12-02T13:38:44.305Z,13.10
2017-12-02T13:41:10.625Z,13.37
2017-12-02T13:43:36.936Z,12.93
2017-12-02T13:46:03.265Z,13.73
2017-12-02T13:48:30.562Z,12.33
2017-12-02T13:50:58.051Z,13.47
2017-12-02T13:53:25.252Z,12.47
2017-12-02T13:55:51.858Z,12.30
2017-12-02T13:58:18.726Z,12.80
2017-12-02T14:00:45.120Z,13.53
2017-12-02T14:03:12.332Z,11.00
2017-12-02T14:05:39.531Z,10.60
2017-12-02T14:08:05.869Z,11.57
2017-12-02T14:10:32.205Z,11.97
2017-12-02T14:12:58.563Z,11.53
2017-12-02T14:15:25.069Z,12.23
2017-12-02T14:17:51.399Z,12.30
2017-12-02T14:20:17.767Z,12.17
2017-12-02T14:22:44.082Z,10.60
2017-12-02T14:25:10.397Z,11.27
2017-12-02T14:27:36.681Z,10.70
2017-12-02T14:30:03.080Z,11.87
2017-12-02T14:32:30.515Z,11.60
2017-12-02T14:34:56.858Z,11.33
2017-12-02T14:37:23.175Z,10.40
2017-12-02T14:39:49.570Z,11.60
2017-12-02T14:42:15.925Z,11.50
2017-12-02T14:44:42.997Z,10.93
2017-12-02T14:47:09.870Z,13.00
2017-12-02T14:49:38.134Z,11.10
2017-12-02T14:52:04.798Z,11.63
2017-12-02T14:54:31.166Z,10.60
2017-12-02T14:56:58.206Z,10.50
2017-12-02T14:59:25.508Z,10.03
2017-12-02T15:01:51.824Z,11.23
2017-12-02T15:04:18.139Z,10.33
2017-12-02T15:06:44.753Z,12.07
2017-12-02T15:09:11.252Z,9.10
2017-12-02T15:11:37.658Z,10.50
2017-12-02T15:14:04.009Z,10.37
2017-12-02T15:16:30.343Z,11.30
2017-12-02T15:18:56.662Z,10.13
2017-12-02T15:21:24.868Z,11.37
2017-12-02T15:23:51.301Z,11.47
2017-12-02T15:26:17.724Z,12.03
2017-12-02T15:28:44.013Z,11.40
2017-12-02T15:31:10.349Z,11.80
2017-12-02T15:33:36.657Z,12.67
2017-12-02T15:36:04.518Z,11.67
2017-12-02T15:38:31.608Z,12.60
2017-12-02T15:40:58.126Z,13.00
2017-12-02T15:43:24.460Z,12.80
2017-12-02T15:45:50.842Z,13.70
2017-12-02T15:48:17.264Z,14.33
2017-12-02T15:50:44.378Z,14.60
2017-12-02T15:53:10.780Z,14.40
2017-12-02T15:55:37.874Z,14.43
2017-12-02T15:58:04.229Z,16.27
2017-12-02T16:00:31.318Z,19.03
2017-12-02T16:03:05.470Z,15.83
2017-12-02T16:05:31.784Z,19.33
2017-12-02T16:07:58.221Z,19.37
2017-12-02T16:10:24.556Z,32.90
2017-12-02T16:12:50.879Z,25.57
2017-12-02T16:15:17.211Z,21.40
2017-12-02T16:17:43.506Z,20.27
2017-12-02T16:20:09.972Z,24.90
2017-12-02T16:22:36.325Z,25.53
2017-12-02T16:25:02.695Z,23.30
2017-12-02T16:27:29.426Z,23.20
2017-12-02T16:29:55.841Z,24.07
2017-12-02T16:32:22.244Z,25.50
2017-12-02T16:34:48.615Z,25.60
2017-12-02T16:37:14.953Z,25.87
2017-12-02T16:39:41.306Z,28.17
2017-12-02T16:42:08.444Z,27.77
2017-12-02T16:44:34.735Z,24.40
2017-12-02T16:47:01.051Z,23.80
2017-12-02T16:49:27.520Z,23.00
2017-12-02T16:51:53.871Z,22.90
2017-12-02T16:54:20.288Z,22.27
2017-12-02T16:56:46.679Z,25.17
2017-12-02T16:59:13.020Z,20.63
2017-12-02T17:01:39.342Z,20.60
2017-12-02T17:04:05.675Z,20.40
2017-12-02T17:06:32.009Z,18.80
2017-12-02T17:08:58.324Z,18.20
2017-12-02T17:11:25.392Z,15.43
2017-12-02T17:13:51.673Z,17.40
2017-12-02T17:16:18.004Z,18.03
2017-12-02T17:18:44.355Z,17.97
2017-12-02T17:21:11.384Z,19.87
2017-12-02T17:23:37.949Z,24.50
2017-12-02T17:26:05.095Z,21.07
2017-12-02T17:28:32.149Z,22.27
2017-12-02T17:30:59.174Z,21.13
2017-12-02T17:33:25.494Z,21.27
2017-12-02T17:35:51.801Z,21.70
2017-12-02T17:38:18.269Z,22.33
2017-12-02T17:40:44.581Z,27.07
2017-12-02T17:43:10.993Z,26.30
2017-12-02T17:45:37.330Z,28.10
2017-12-02T17:48:04.555Z,31.33
2017-12-02T17:50:32.374Z,32.57
2017-12-02T17:52:59.228Z,31.47
2017-12-02T17:55:27.013Z,29.27
2017-12-02T17:57:54.510Z,27.40
2017-12-02T18:00:21.451Z,24.70
2017-12-02T18:02:48.072Z,24.60
2017-12-02T18:05:15.095Z,22.10
2017-12-02T18:07:42.350Z,22.33
2017-12-02T18:10:09.873Z,21.67
2017-12-02T18:12:36.188Z,20.83
2017-12-02T18:15:02.534Z,21.00
2017-12-02T18:17:28.892Z,21.30
2017-12-02T18:19:55.737Z,23.87
2017-12-02T18:22:22.839Z,20.87
2017-12-02T18:24:49.738Z,20.50
2017-12-02T18:27:17.287Z,22.03
2017-12-02T18:29:44.699Z,21.47
2017-12-02T18:32:11.027Z,20.37
2017-12-02T18:34:37.758Z,19.70
2017-12-02T18:37:04.266Z,21.87
2017-12-02T18:39:31.605Z,22.33
2017-12-02T18:41:58.449Z,25.20
2017-12-02T18:44:25.699Z,25.97
2017-12-02T18:46:53.271Z,25.40
2017-12-02T18:49:20.869Z,25.13
2017-12-02T18:51:47.481Z,24.07
2017-12-02T18:54:13.882Z,26.00
2017-12-02T18:56:40.570Z,26.03
2017-12-02T18:59:07.206Z,25.70
2017-12-02T19:01:33.818Z,27.30
2017-12-02T19:04:01.127Z,25.60
2017-12-02T19:06:27.779Z,21.93
2017-12-02T19:08:54.376Z,24.47
2017-12-02T19:11:20.784Z,22.73
2017-12-02T19:13:47.840Z,27.80
2017-12-02T19:16:15.033Z,29.00
2017-12-02T19:18:41.297Z,23.67
2017-12-02T19:21:07.959Z,26.40
2017-12-02T19:23:35.074Z,23.87
2017-12-02T19:26:01.900Z,23.00
2017-12-02T19:28:28.437Z,25.27
2017-12-02T19:30:55.859Z,29.03
2017-12-02T19:33:22.160Z,29.60
2017-12-02T19:35:48.642Z,27.27
2017-12-02T19:38:15.202Z,22.20
2017-12-02T19:40:42.012Z,24.00
2017-12-02T19:43:08.722Z,22.73
2017-12-02T19:45:36.027Z,23.67
2017-12-02T19:48:02.706Z,25.40
2017-12-02T19:50:29.744Z,22.23
2017-12-02T19:52:56.368Z,23.73
2017-12-02T19:55:22.909Z,21.70
2017-12-02T19:57:49.438Z,23.60
2017-12-02T20:00:16.144Z,23.50
2017-12-02T20:02:42.488Z,22.23
2017-12-02T20:05:09.381Z,22.40
2017-12-02T20:07:36.868Z,23.50
2017-12-02T20:10:04.361Z,24.30
2017-12-02T20:12:31.147Z,24.87
2017-12-02T20:14:59.620Z,23.10
2017-12-02T20:17:27.160Z,21.50
2017-12-02T20:19:53.673Z,23.60
2017-12-02T20:22:20.271Z,23.50
2017-12-02T20:24:47.544Z,29.07
2017-12-02T20:27:13.888Z,31.50
2017-12-02T20:29:40.419Z,26.00
2017-12-02T20:32:06.802Z,25.73
2017-12-02T20:34:33.497Z,23.47
2017-12-02T20:36:59.831Z,22.67
2017-12-02T20:39:27.449Z,23.30
2017-12-02T20:41:54.056Z,22.40
2017-12-02T20:44:20.902Z,21.73
2017-12-02T20:46:47.792Z,22.27
2017-12-02T20:49:14.170Z,20.83
2017-12-02T20:51:40.462Z,22.53
2017-12-02T20:54:06.804Z,23.50
2017-12-02T20:56:33.375Z,21.60
2017-12-02T20:59:00.690Z,20.40
2017-12-02T21:01:27.308Z,19.67
2017-12-02T21:03:53.677Z,18.40
2017-12-02T21:06:20.149Z,21.13
2017-12-02T21:08:46.852Z,21.97
2017-12-02T21:11:13.182Z,21.53
2017-12-02T21:13:39.520Z,22.30
2017-12-02T21:16:05.849Z,21.23
2017-12-02T21:18:32.419Z,22.57
2017-12-02T21:20:58.722Z,21.70
2017-12-02T21:23:25.109Z,22.63
2017-12-02T21:25:52.344Z,22.70
2017-12-02T21:28:18.985Z,23.53
2017-12-02T21:30:45.768Z,22.67
2017-12-02T21:33:12.447Z,23.50
2017-12-02T21:35:38.975Z,24.20
2017-12-02T21:38:05.307Z,22.47
2017-12-02T21:40:31.876Z,23.40
2017-12-02T21:42:59.228Z,23.70
2017-12-02T21:45:25.646Z,23.83
2017-12-02T21:47:52.139Z,22.40
2017-12-02T21:50:18.918Z,24.20
2017-12-02T21:52:45.581Z,22.30
2017-12-02T21:55:13.060Z,22.00
2017-12-02T21:57:39.544Z,22.10
2017-12-02T22:00:06.311Z,21.87
2017-12-02T22:02:33.582Z,22.27
2017-12-02T22:05:00.029Z,22.73
2017-12-02T22:07:26.565Z,21.77
2017-12-02T22:09:53.262Z,21.33
2017-12-02T22:12:19.571Z,23.17
2017-12-02T22:14:45.936Z,22.73
2017-12-02T22:17:13.638Z,22.03
2017-12-02T22:19:40.382Z,22.97
2017-12-02T22:22:07.014Z,21.30
2017-12-02T22:24:33.324Z,23.53
2017-12-02T22:27:00.688Z,23.43
2017-12-02T22:29:27.226Z,21.40
2017-12-02T22:32:08.663Z,22.67
2017-12-02T22:34:35.225Z,22.03
2017-12-02T22:37:04.101Z,22.30
2017-12-02T22:39:32.196Z,23.67
2017-12-02T22:41:59.552Z,23.03
2017-12-02T22:44:25.926Z,21.20
2017-12-02T22:46:55.581Z,21.40
2017-12-02T22:49:22.272Z,22.20
2017-12-02T22:51:48.895Z,20.47
2017-12-02T22:54:15.736Z,23.20
2017-12-02T22:56:42.700Z,20.23
2017-12-02T22:59:09.316Z,20.73
2017-12-02T23:01:36.001Z,21.23
2017-12-02T23:04:02.305Z,20.87
2017-12-02T23:06:29.075Z,21.13
2017-12-02T23:08:56.191Z,22.10
2017-12-02T23:11:22.767Z,24.20
2017-12-02T23:13:50.101Z,25.40
2017-12-02T23:16:16.774Z,24.53
2017-12-02T23:18:44.088Z,24.73
2017-12-02T23:21:10.730Z,22.10
2017-12-02T23:23:37.403Z,19.60
2017-12-02T23:26:03.989Z,21.43
2017-12-02T23:28:30.428Z,20.80
2017-12-02T23:30:58.076Z,20.20
2017-12-02T23:33:24.662Z,21.00
2017-12-02T23:35:50.994Z,19.40
2017-12-02T23:38:17.496Z,20.07
2017-12-02T23:40:43.851Z,18.30
2017-12-02T23:43:10.576Z,17.93
2017-12-02T23:45:36.989Z,20.93
2017-12-02T23:48:03.893Z,19.97
2017-12-02T23:50:31.309Z,19.13
2017-12-02T23:52:57.955Z,21.97
2017-12-02T23:55:24.577Z,19.00
2017-12-02T23:57:51.341Z,19.43
